Time;durP1;ratioP1;P1;durP2;ratioP2;P2;SDS_P1;SDS_P2;PMS_P1;PMS_P2;Temp;Humidity;BMP_temperature;BMP_pressure;BME280_temperature;BME280_humidity;BME280_pressure;Samples;Min_cycle;Max_cycle;Signal;HPM_P1;HPM_P2
2024/03/11 00:00:33;;;;;;;23.30;10.30;;;;;;;0.30;51.43;99412.46;105745;1251;74675;-27
2024/03/11 00:03:01;;;;;;;45.90;16.20;;;;;;;0.33;51.64;99416.14;105686;1251;72628;-27
2024/03/11 00:05:30;;;;;;;25.00;10.20;;;;;;;0.27;51.21;99413.40;105459;1251;61262;-27
2024/03/11 00:07:58;;;;;;;19.20;7.90;;;;;;;0.27;51.58;99413.91;105914;1256;61652;-27
2024/03/11 00:10:27;;;;;;;21.00;9.20;;;;;;;0.17;51.56;99408.98;105897;1251;73384;-27
2024/03/11 00:12:55;;;;;;;43.90;17.10;;;;;;;0.13;51.61;99407.20;105951;1251;74156;-27
2024/03/11 00:15:23;;;;;;;20.70;7.10;;;;;;;0.09;51.72;99408.01;105982;1251;72298;-27
2024/03/11 00:17:50;;;;;;;21.70;7.60;;;;;;;0.06;52.01;99406.61;105681;1257;61085;-27
2024/03/11 00:20:20;;;;;;;30.50;10.00;;;;;;;0.05;51.81;99408.48;105914;1251;61170;-28
2024/03/11 00:22:48;;;;;;;11.60;6.20;;;;;;;0.06;51.85;99409.15;105892;1251;74353;-27
2024/03/11 00:25:15;;;;;;;8.20;4.70;;;;;;;0.09;51.83;99412.63;105896;1251;74659;-27
2024/03/11 00:27:42;;;;;;;6.80;3.20;;;;;;;0.16;51.56;99413.42;105779;1251;72997;-27
2024/03/11 00:30:10;;;;;;;23.10;8.60;;;;;;;0.05;51.84;99411.21;105754;1251;61051;-27
2024/03/11 00:32:39;;;;;;;29.60;11.90;;;;;;;0.04;52.07;99413.13;105649;1251;61180;-27
2024/03/11 00:35:09;;;;;;;24.90;9.80;;;;;;;-0.07;52.20;99410.94;105709;1257;72570;-27
2024/03/11 00:37:36;;;;;;;20.50;6.70;;;;;;;-0.11;52.33;99409.52;105749;1257;73253;-27
2024/03/11 00:40:08;;;;;;;22.20;12.00;;;;;;;-0.12;52.29;99415.02;105928;1255;72626;-27
2024/03/11 00:42:34;;;;;;;19.30;9.50;;;;;;;-0.11;52.16;99422.50;105719;1259;61199;-27
2024/03/11 00:45:02;;;;;;;20.20;8.50;;;;;;;-0.14;52.48;99421.05;105765;1257;61106;-27
2024/03/11 00:47:29;;;;;;;30.90;12.60;;;;;;;-0.23;52.16;99418.23;105664;1251;73680;-27
2024/03/11 00:49:57;;;;;;;24.30;11.00;;;;;;;-0.24;52.63;99420.50;105880;1251;74398;-27
2024/03/11 00:52:25;;;;;;;12.40;6.40;;;;;;;-0.16;52.40;99424.02;105891;1254;72407;-27
2024/03/11 00:54:52;;;;;;;24.80;13.10;;;;;;;-0.01;51.94;99430.19;105881;1251;61684;-27
2024/03/11 00:57:19;;;;;;;37.60;17.50;;;;;;;-0.12;52.32;99426.77;105540;1257;61099;-27
2024/03/11 01:02:02;;;;;;;29.10;12.50;;;;;;;-0.41;52.73;99432.11;102726;1292;600372;-28
2024/03/11 01:04:30;;;;;;;14.50;6.20;;;;;;;-0.34;52.85;99425.42;105016;1269;61183;-27
2024/03/11 01:06:59;;;;;;;10.40;3.80;;;;;;;-0.38;52.57;99426.55;104939;1269;61175;-28
2024/03/11 01:09:44;;;;;;;27.60;12.60;;;;;;;-0.34;52.58;99428.84;104794;1267;72236;-28
2024/03/11 01:12:12;;;;;;;23.30;8.60;;;;;;;-0.32;52.68;99431.32;105709;1259;74330;-28
2024/03/11 01:14:39;;;;;;;6.80;3.40;;;;;;;-0.33;52.36;99431.52;105468;1258;227614;-28
2024/03/11 01:17:07;;;;;;;6.70;4.00;;;;;;;-0.35;52.50;99435.67;105826;1253;61168;-28
2024/03/11 01:19:35;;;;;;;5.40;2.50;;;;;;;-0.39;52.28;99437.17;105842;1257;61113;-27
2024/03/11 01:22:02;;;;;;;3.60;1.80;;;;;;;-0.27;52.21;99438.52;105687;1259;72184;-28
2024/03/11 01:24:30;;;;;;;2.00;1.30;;;;;;;-0.26;52.03;99431.81;105702;1256;74446;-28
2024/03/11 01:26:57;;;;;;;2.10;1.00;;;;;;;-0.28;52.21;99432.56;105811;1253;72639;-28
2024/03/11 01:29:25;;;;;;;3.30;1.60;;;;;;;-0.37;52.53;99430.95;105853;1251;61202;-28
2024/03/11 01:31:52;;;;;;;3.30;1.40;;;;;;;-0.42;52.36;99433.49;105898;1256;61193;-28
2024/03/11 01:34:21;;;;;;;1.60;1.10;;;;;;;-0.47;52.53;99436.73;105889;1251;73063;-28
2024/03/11 01:36:49;;;;;;;2.20;1.40;;;;;;;-0.46;52.46;99440.45;105725;1256;73128;-28
2024/03/11 01:39:25;;;;;;;5.10;2.10;;;;;;;-0.49;52.91;99436.62;105845;1260;70635;-28
2024/03/11 01:41:53;;;;;;;4.10;2.30;;;;;;;-0.54;52.63;99441.35;105923;1256;61151;-28
2024/03/11 01:44:21;;;;;;;3.60;1.90;;;;;;;-0.59;52.60;99436.56;105932;1257;61085;-28
2024/03/11 01:46:51;;;;;;;2.10;1.60;;;;;;;-0.62;52.57;99431.85;105889;1256;73005;-27
2024/03/11 01:49:19;;;;;;;2.70;1.30;;;;;;;-0.60;52.57;99433.17;105552;1259;74327;-28
2024/03/11 01:51:47;;;;;;;2.20;1.20;;;;;;;-0.61;52.77;99433.89;105670;1256;71360;-28
2024/03/11 01:54:15;;;;;;;3.70;1.30;;;;;;;-0.58;52.54;99437.90;105856;1254;61058;-28
2024/03/11 01:56:42;;;;;;;6.60;1.50;;;;;;;-0.53;52.74;99440.64;105756;1257;61188;-28
2024/03/11 01:59:10;;;;;;;2.80;1.50;;;;;;;-0.65;52.49;99437.41;105683;1259;72868;-28
2024/03/11 02:01:38;;;;;;;3.10;1.80;;;;;;;-0.64;52.62;99440.45;105763;1257;73797;-28
2024/03/11 02:04:06;;;;;;;3.20;2.00;;;;;;;-0.64;52.83;99449.66;109515;1251;71406;-27
2024/03/11 02:06:33;;;;;;;2.90;1.30;;;;;;;-0.66;52.96;99449.54;109489;1251;60079;-26
2024/03/11 02:09:03;;;;;;;3.90;1.60;;;;;;;-0.65;52.82;99454.11;109613;1251;60013;-26
2024/03/11 02:11:32;;;;;;;2.30;1.30;;;;;;;-0.68;52.83;99450.97;109572;1253;73099;-26
2024/03/11 02:13:59;;;;;;;5.40;1.50;;;;;;;-0.62;52.74;99457.27;109515;1254;74311;-26
2024/03/11 02:16:27;;;;;;;5.10;1.50;;;;;;;-0.68;52.77;99461.71;109546;1253;72642;-26
2024/03/11 02:18:55;;;;;;;2.30;1.10;;;;;;;-0.63;52.67;99462.08;109561;1254;58940;-26
2024/03/11 02:21:22;;;;;;;2.10;1.30;;;;;;;-0.53;52.50;99465.21;109552;1252;59020;-27
2024/03/11 02:23:50;;;;;;;1.90;1.60;;;;;;;-0.51;52.29;99466.52;109545;1253;73058;-26
2024/03/11 02:26:19;;;;;;;2.70;1.70;;;;;;;-0.59;52.44;99473.75;109552;1253;74294;-27
2024/03/11 02:28:47;;;;;;;8.10;2.00;;;;;;;-0.61;52.44;99468.14;109511;1254;71315;-27
2024/03/11 02:31:14;;;;;;;2.80;1.70;;;;;;;-0.62;52.35;99471.59;109514;1254;58846;-27
2024/03/11 02:33:41;;;;;;;1.20;0.90;;;;;;;-0.52;52.42;99469.45;109400;1253;60021;-26
2024/03/11 02:36:09;;;;;;;2.60;1.50;;;;;;;-0.49;52.18;99463.04;109519;1257;73028;-26
2024/03/11 02:38:37;;;;;;;4.80;2.30;;;;;;;-0.58;52.48;99466.37;109551;1253;74300;-26
2024/03/11 02:41:05;;;;;;;1.30;1.10;;;;;;;-0.51;51.95;99466.18;109543;1253;72742;-26
2024/03/11 02:43:32;;;;;;;5.70;1.30;;;;;;;-0.46;52.00;99469.45;109527;1253;58858;-27
2024/03/11 02:46:00;;;;;;;2.10;1.10;;;;;;;-0.50;52.13;99470.77;109412;1254;58753;-26
2024/03/11 02:48:27;;;;;;;1.10;0.80;;;;;;;-0.53;51.98;99472.55;109381;1254;73052;-26
2024/03/11 02:50:55;;;;;;;2.10;1.20;;;;;;;-0.54;52.41;99474.61;109545;1254;74439;-27
2024/03/11 02:53:23;;;;;;;1.70;1.20;;;;;;;-0.60;52.02;99469.66;109526;1256;70719;-26
2024/03/11 02:55:51;;;;;;;1.30;0.80;;;;;;;-0.56;52.26;99469.91;109517;1253;60054;-27
2024/03/11 02:58:18;;;;;;;1.80;1.10;;;;;;;-0.55;52.00;99468.67;109574;1254;59061;-27
2024/03/11 03:00:46;;;;;;;2.30;0.90;;;;;;;-0.64;51.99;99465.17;109505;1254;73065;-27
2024/03/11 03:03:14;;;;;;;2.80;1.50;;;;;;;-0.62;52.05;99469.20;109536;1254;73309;-27
2024/03/11 03:05:41;;;;;;;5.00;1.60;;;;;;;-0.63;52.07;99469.73;109363;1254;72692;-26
2024/03/11 03:08:09;;;;;;;2.50;1.20;;;;;;;-0.66;52.35;99468.64;109381;1254;60096;-26
2024/03/11 03:10:37;;;;;;;2.60;1.20;;;;;;;-0.63;51.95;99473.48;109571;1252;60096;-27
2024/03/11 03:13:05;;;;;;;1.50;1.20;;;;;;;-0.63;52.05;99475.20;109513;1254;71760;-26
2024/03/11 03:15:32;;;;;;;2.80;1.20;;;;;;;-0.65;52.21;99471.68;109361;1253;73285;-26
2024/03/11 03:17:59;;;;;;;4.60;1.90;;;;;;;-0.69;52.20;99471.97;109476;1254;72675;-27
2024/03/11 03:20:27;;;;;;;1.50;1.10;;;;;;;-0.70;52.10;99466.37;109313;1253;60045;-27
2024/03/11 03:22:54;;;;;;;2.30;1.10;;;;;;;-0.70;52.24;99467.05;109513;1254;58733;-26
2024/03/11 03:25:22;;;;;;;3.10;1.40;;;;;;;-0.70;52.17;99463.64;109497;1254;73075;-27
2024/03/11 03:27:49;;;;;;;4.30;1.60;;;;;;;-0.80;52.09;99459.81;109542;1253;74314;-26
2024/03/11 03:30:17;;;;;;;1.90;1.20;;;;;;;-0.78;52.17;99463.69;109333;1253;71058;-26
2024/03/11 03:32:44;;;;;;;1.40;1.20;;;;;;;-0.85;52.46;99465.41;109499;1253;60009;-26
2024/03/11 03:35:11;;;;;;;8.30;2.30;;;;;;;-0.81;52.16;99462.23;109501;1254;59142;-26
2024/03/11 03:37:40;;;;;;;1.60;0.70;;;;;;;-0.91;52.32;99458.45;109372;1259;73059;-27
2024/03/11 03:40:16;;;;;;;2.10;1.30;;;;;;;-0.83;52.13;99463.99;109311;1253;74276;-27
2024/03/11 03:42:46;;;;;;;2.00;1.40;;;;;;;-0.82;52.23;99463.81;109493;1253;72660;-26
2024/03/11 03:45:14;;;;;;;2.20;1.00;;;;;;;-0.96;52.27;99460.60;109199;1254;58805;-27
2024/03/11 03:47:41;;;;;;;1.90;0.70;;;;;;;-0.90;52.52;99461.31;109487;1254;60093;-27
2024/03/11 03:50:10;;;;;;;2.30;1.20;;;;;;;-0.85;52.02;99459.29;109382;1254;73077;-27
2024/03/11 03:52:38;;;;;;;1.40;1.20;;;;;;;-0.87;52.35;99460.55;109453;1254;74313;-27
2024/03/11 03:55:06;;;;;;;3.80;1.40;;;;;;;-0.85;52.40;99461.67;109311;1253;72663;-27
2024/03/11 03:57:33;;;;;;;4.60;1.30;;;;;;;-0.84;52.20;99461.65;109475;1254;58876;-26
2024/03/11 04:00:00;;;;;;;2.10;1.40;;;;;;;-0.81;51.97;99461.05;109533;1253;59985;-26
2024/03/11 04:02:33;;;;;;;3.80;1.60;;;;;;;-0.82;51.98;99455.80;109475;1257;72065;-26
2024/03/11 04:05:02;;;;;;;2.50;1.30;;;;;;;-0.89;52.02;99454.97;109525;1253;72855;-27
2024/03/11 04:07:29;;;;;;;4.00;1.90;;;;;;;-0.88;51.96;99450.00;109457;1253;71443;-27
2024/03/11 04:09:57;;;;;;;2.50;1.50;;;;;;;-0.84;51.83;99450.74;109407;1254;60032;-26
2024/03/11 04:12:24;;;;;;;3.60;1.80;;;;;;;-0.86;51.84;99444.30;109377;1253;58802;-26
2024/03/11 04:14:52;;;;;;;2.60;1.50;;;;;;;-0.86;51.94;99454.35;109290;1254;71826;-26
2024/03/11 04:17:19;;;;;;;5.70;2.30;;;;;;;-0.81;52.05;99455.25;109461;1253;74272;-26
2024/03/11 04:19:47;;;;;;;1.90;1.10;;;;;;;-0.86;51.67;99456.91;109421;1253;73157;-27
2024/03/11 04:22:15;;;;;;;2.40;1.30;;;;;;;-0.82;51.75;99456.99;109400;1254;60145;-26
2024/03/11 04:24:42;;;;;;;3.70;1.50;;;;;;;-0.69;51.66;99464.80;109435;1253;60050;-26
2024/03/11 04:27:11;;;;;;;2.20;1.20;;;;;;;-0.87;51.34;99457.80;109458;1253;71713;-26
2024/03/11 04:29:39;;;;;;;1.70;1.20;;;;;;;-0.91;51.78;99455.52;109386;1254;73012;-26
2024/03/11 04:32:06;;;;;;;4.00;1.60;;;;;;;-0.83;51.75;99466.73;109413;1254;72667;-26
2024/03/11 04:34:34;;;;;;;1.80;1.30;;;;;;;-0.82;51.54;99463.97;109407;1254;58786;-26
2024/03/11 04:37:01;;;;;;;3.80;1.40;;;;;;;-0.81;51.64;99463.94;109420;1254;59991;-27
2024/03/11 04:39:29;;;;;;;4.00;1.50;;;;;;;-0.79;51.24;99465.77;109407;1254;72998;-27
2024/03/11 04:41:56;;;;;;;0.90;0.80;;;;;;;-0.80;51.23;99465.77;109421;1253;73214;-26
2024/03/11 04:44:24;;;;;;;10.60;5.40;;;;;;;-0.71;51.20;99470.84;109431;1253;72752;-26
2024/03/11 04:46:54;;;;;;;5.60;3.10;;;;;;;-0.72;51.08;99473.25;109362;1254;59102;-27
2024/03/11 04:49:21;;;;;;;4.00;1.70;;;;;;;-0.79;51.09;99470.89;109469;1253;58782;-26
2024/03/11 04:51:49;;;;;;;22.70;6.20;;;;;;;-0.69;50.80;99474.20;109462;1254;73045;-26
2024/03/11 04:54:17;;;;;;;3.40;1.70;;;;;;;-0.78;51.00;99471.02;109420;1253;72498;-26
2024/03/11 04:56:45;;;;;;;2.60;1.40;;;;;;;-0.79;51.07;99474.80;109408;1254;71377;-26
2024/03/11 04:59:12;;;;;;;11.20;2.30;;;;;;;-0.71;50.94;99477.64;109299;1254;58828;-26
2024/03/11 05:01:39;;;;;;;5.20;1.80;;;;;;;-0.72;50.90;99472.23;109451;1253;59974;-26
2024/03/11 05:04:07;;;;;;;6.80;2.50;;;;;;;-0.72;50.95;99467.46;109414;1253;72842;-27
2024/03/11 05:06:35;;;;;;;6.00;2.20;;;;;;;-0.75;50.92;99470.26;109415;1254;74352;-27
2024/03/11 05:09:03;;;;;;;8.80;3.40;;;;;;;-0.72;51.05;99476.84;109452;1254;72659;-26
2024/03/11 05:11:30;;;;;;;3.80;1.90;;;;;;;-0.72;51.00;99474.95;109405;1254;58855;-26
2024/03/11 05:13:58;;;;;;;4.30;1.80;;;;;;;-0.78;51.12;99482.95;109412;1254;58752;-27
2024/03/11 05:16:26;;;;;;;7.50;1.80;;;;;;;-0.74;51.37;99486.61;109227;1254;72674;-27
2024/03/11 05:18:54;;;;;;;7.60;1.90;;;;;;;-0.76;51.50;99481.36;109179;1254;73152;-26
2024/03/11 05:21:22;;;;;;;6.50;1.40;;;;;;;-0.72;51.36;99490.14;109371;1254;71698;-27
2024/03/11 05:23:49;;;;;;;2.70;1.70;;;;;;;-0.69;51.25;99486.11;109356;1254;59255;-27
2024/03/11 05:26:18;;;;;;;3.20;1.60;;;;;;;-0.63;51.42;99486.46;109377;1253;60024;-27
2024/03/11 05:28:45;;;;;;;14.70;2.60;;;;;;;-0.62;51.16;99485.40;109212;1253;73845;-27
2024/03/11 05:31:13;;;;;;;7.30;2.40;;;;;;;-0.51;51.37;99493.63;109234;1254;73191;-27
2024/03/11 05:33:40;;;;;;;3.90;2.20;;;;;;;-0.51;51.49;99501.14;109225;1253;72659;-27
2024/03/11 05:36:08;;;;;;;13.20;5.00;;;;;;;-0.37;51.54;99506.54;109184;1254;58780;-27
2024/03/11 05:38:35;;;;;;;10.50;3.50;;;;;;;-0.41;51.43;99501.52;109363;1254;58815;-27
2024/03/11 05:41:03;;;;;;;7.20;2.50;;;;;;;-0.32;51.21;99503.83;109216;1254;73968;-27
2024/03/11 05:43:30;;;;;;;3.10;1.40;;;;;;;-0.28;51.04;99503.55;109373;1254;74314;-26
2024/03/11 05:45:57;;;;;;;2.90;1.60;;;;;;;-0.22;51.09;99507.82;109344;1253;71399;-27
2024/03/11 05:48:25;;;;;;;6.10;3.40;;;;;;;-0.21;51.07;99505.05;109207;1253;58840;-26
2024/03/11 05:51:01;;;;;;;5.50;3.00;;;;;;;-0.18;51.07;99504.79;109387;1254;60081;-26
2024/03/11 05:53:28;;;;;;;5.20;2.10;;;;;;;-0.13;50.78;99506.17;109366;1253;72564;-27
2024/03/11 05:55:56;;;;;;;3.60;1.40;;;;;;;-0.08;50.75;99509.98;109381;1253;72977;-27
2024/03/11 05:58:26;;;;;;;10.00;3.60;;;;;;;-0.05;50.80;99511.58;109187;1253;72609;-26
2024/03/11 06:00:54;;;;;;;4.50;2.10;;;;;;;-0.06;50.95;99519.11;109370;1253;58779;-27
2024/03/11 06:03:22;;;;;;;5.00;2.70;;;;;;;0.08;50.71;99517.16;109187;1254;59993;-27
2024/03/11 06:05:51;;;;;;;2.80;1.80;;;;;;;0.11;50.64;99522.54;109223;1253;73853;-27
2024/03/11 06:08:20;;;;;;;3.30;1.60;;;;;;;0.26;50.50;99521.55;109408;1253;74321;-27
2024/03/11 06:10:48;;;;;;;2.30;1.80;;;;;;;0.16;50.34;99514.86;109321;1254;72625;-26
2024/03/11 06:13:15;;;;;;;4.40;3.10;;;;;;;0.03;50.53;99516.43;109337;1257;59344;-26
2024/03/11 06:15:43;;;;;;;2.00;1.70;;;;;;;0.21;50.72;99523.61;109388;1254;60167;-26
2024/03/11 06:18:10;;;;;;;5.20;2.50;;;;;;;0.34;50.48;99522.33;109359;1254;73854;-26
2024/03/11 06:20:38;;;;;;;2.50;1.30;;;;;;;0.43;50.16;99514.71;109196;1254;74375;-27
2024/03/11 06:23:05;;;;;;;9.90;3.00;;;;;;;0.38;50.04;99514.52;109173;1254;71874;-26
2024/03/11 06:25:33;;;;;;;5.90;3.10;;;;;;;0.28;50.10;99513.64;109179;1254;58886;-26
2024/03/11 06:28:01;;;;;;;4.00;1.60;;;;;;;0.35;50.27;99521.62;109346;1254;58737;-27
2024/03/11 06:30:28;;;;;;;4.80;2.40;;;;;;;0.55;49.94;99524.73;109326;1254;72567;-26
2024/03/11 06:32:56;;;;;;;6.90;2.20;;;;;;;0.49;49.88;99521.34;109359;1254;74304;-27
2024/03/11 06:35:23;;;;;;;3.70;1.70;;;;;;;0.49;49.88;99525.61;109335;1254;71875;-27
2024/03/11 06:37:51;;;;;;;8.30;2.50;;;;;;;0.72;49.94;99534.60;109359;1254;59266;-26
2024/03/11 06:40:21;;;;;;;3.60;2.30;;;;;;;0.81;49.54;99537.05;109321;1254;60082;-27
2024/03/11 06:42:51;;;;;;;3.10;1.80;;;;;;;0.81;49.11;99534.86;109396;1254;73979;-26
2024/03/11 06:45:20;;;;;;;3.50;1.90;;;;;;;0.78;49.05;99536.30;109349;1254;74784;-26
2024/03/11 06:47:48;;;;;;;15.50;5.60;;;;;;;0.87;48.59;99538.03;109325;1254;72624;-26
2024/03/11 06:50:16;;;;;;;4.80;2.40;;;;;;;1.10;48.96;99541.39;109325;1255;60240;-27
2024/03/11 06:52:45;;;;;;;3.20;1.70;;;;;;;1.17;48.36;99532.23;109376;1254;61893;-26
2024/03/11 06:55:16;;;;;;;6.80;2.70;;;;;;;1.31;48.22;99536.89;109383;1254;72995;-26
2024/03/11 06:57:44;;;;;;;5.20;2.10;;;;;;;1.51;47.59;99540.45;109381;1254;73332;-26
2024/03/11 07:00:18;;;;;;;10.50;3.10;;;;;;;1.57;47.21;99542.30;109316;1254;72137;-27
2024/03/11 07:02:47;;;;;;;5.70;2.50;;;;;;;1.36;47.11;99538.94;109088;1254;59870;-27
2024/03/11 07:05:14;;;;;;;6.30;2.80;;;;;;;1.38;47.53;99536.98;109142;1254;59849;-26
2024/03/11 07:07:42;;;;;;;5.80;2.00;;;;;;;1.25;47.87;99528.73;109166;1254;73895;-26
2024/03/11 07:10:10;;;;;;;1.90;1.40;;;;;;;1.30;47.83;99531.78;109377;1254;76553;-26
2024/03/11 07:12:40;;;;;;;3.20;2.10;;;;;;;1.35;47.62;99528.39;109103;1254;74019;-27
2024/03/11 07:15:11;;;;;;;2.20;1.30;;;;;;;1.42;47.49;99538.02;109085;1254;60367;-26
2024/03/11 07:17:38;;;;;;;5.50;1.90;;;;;;;1.57;47.46;99534.07;109069;1254;59614;-26
2024/03/11 07:20:13;;;;;;;4.50;2.20;;;;;;;1.64;47.73;99534.67;109147;1254;75362;-26
2024/03/11 07:22:42;;;;;;;17.90;5.00;;;;;;;1.95;46.86;99536.45;109138;1254;73292;-26
2024/03/11 07:25:10;;;;;;;16.00;6.20;;;;;;;2.18;46.37;99543.98;109260;1254;72734;-26
2024/03/11 07:27:38;;;;;;;8.50;2.30;;;;;;;2.32;45.67;99533.15;109260;1256;58973;-26
2024/03/11 07:30:07;;;;;;;15.10;3.60;;;;;;;2.41;45.28;99528.84;109265;1255;62121;-26
2024/03/11 07:32:34;;;;;;;5.10;2.60;;;;;;;2.37;45.10;99535.33;109017;1254;76070;-27
2024/03/11 07:35:05;;;;;;;5.90;2.30;;;;;;;2.40;45.00;99535.58;109229;1254;75911;-26
2024/03/11 07:37:36;;;;;;;6.80;2.70;;;;;;;2.48;44.74;99535.60;109129;1254;73583;-27
2024/03/11 07:40:11;;;;;;;10.40;3.60;;;;;;;2.45;44.90;99533.00;109245;1256;61398;-26
2024/03/11 07:42:39;;;;;;;2.60;1.70;;;;;;;2.45;45.08;99534.50;109069;1254;62351;-26
2024/03/11 07:45:10;;;;;;;4.60;2.30;;;;;;;2.61;45.19;99536.11;109134;1254;75383;-26
2024/03/11 07:47:43;;;;;;;4.30;2.00;;;;;;;2.69;44.64;99531.65;109141;1254;76598;-27
2024/03/11 07:50:11;;;;;;;7.00;3.20;;;;;;;2.67;44.47;99539.80;109286;1254;71704;-27
2024/03/11 07:52:39;;;;;;;5.70;2.70;;;;;;;2.72;44.54;99533.45;109245;1254;59117;-26
2024/03/11 07:55:08;;;;;;;3.70;1.40;;;;;;;2.86;44.22;99535.79;109112;1254;62150;-26
2024/03/11 07:57:36;;;;;;;2.90;2.00;;;;;;;3.08;44.10;99534.88;109098;1255;72708;-27
2024/03/11 08:00:09;;;;;;;4.00;2.10;;;;;;;3.12;44.21;99532.98;109258;1255;76594;-27
2024/03/11 08:02:37;;;;;;;3.20;1.60;;;;;;;3.18;43.93;99536.47;109136;1254;72624;-27
2024/03/11 08:05:08;;;;;;;3.40;2.00;;;;;;;3.45;43.84;99543.23;109249;1255;60879;-26
2024/03/11 08:07:39;;;;;;;;;;;;;;;3.72;43.31;99540.31;109164;1254;61000;-27
2024/03/11 08:10:09;;;;;;;7.80;2.70;;;;;;;3.58;42.92;99542.13;109293;1254;74821;-26
2024/03/11 08:12:39;;;;;;;9.00;2.60;;;;;;;3.45;42.98;99539.61;109284;1255;73967;-26
2024/03/11 08:15:14;;;;;;;10.80;2.80;;;;;;;3.41;43.05;99529.48;109035;1255;73053;-26
2024/03/11 08:17:46;;;;;;;6.90;2.50;;;;;;;3.42;42.78;99531.00;108978;1256;58828;-26
2024/03/11 08:20:17;;;;;;;4.00;2.00;;;;;;;3.67;42.73;99524.20;109042;1255;61577;-26
2024/03/11 08:22:55;;;;;;;3.00;2.00;;;;;;;3.93;42.36;99523.55;109038;1255;73322;-26
2024/03/11 08:25:29;;;;;;;3.90;1.90;;;;;;;4.02;41.81;99509.20;109051;1256;73298;-27
2024/03/11 08:27:59;;;;;;;2.40;1.60;;;;;;;4.22;41.78;99519.79;109056;1256;72587;-26
2024/03/11 08:30:30;;;;;;;3.30;1.60;;;;;;;4.53;41.31;99522.11;109110;1256;59030;-26
2024/03/11 08:33:00;;;;;;;1.70;1.10;;;;;;;4.52;40.99;99518.38;109138;1255;61978;-26
2024/03/11 08:35:30;;;;;;;1.80;1.20;;;;;;;4.83;41.04;99521.13;109130;1256;75398;-26
2024/03/11 08:38:00;;;;;;;1.90;1.30;;;;;;;5.09;40.59;99511.06;109153;1256;76624;-27
2024/03/11 08:40:30;;;;;;;2.30;1.70;;;;;;;5.24;40.33;99512.05;108970;1256;74244;-26
2024/03/11 08:43:01;;;;;;;2.40;1.50;;;;;;;5.44;39.62;99511.52;109117;1256;60984;-26
2024/03/11 08:45:33;;;;;;;2.60;1.50;;;;;;;5.33;39.19;99508.97;109074;1255;60299;-26
2024/03/11 08:48:03;;;;;;;2.30;1.40;;;;;;;5.48;39.58;99513.88;109144;1256;76041;-26
2024/03/11 08:50:33;;;;;;;2.70;1.30;;;;;;;5.70;39.22;99519.30;109052;1256;76890;-27
2024/03/11 08:53:06;;;;;;;3.80;2.00;;;;;;;5.67;38.95;99509.98;109114;1255;74213;-26
2024/03/11 08:55:35;;;;;;;4.60;1.60;;;;;;;5.71;38.76;99510.63;109108;1256;58774;-26
2024/03/11 08:58:05;;;;;;;3.10;1.70;;;;;;;5.86;38.48;99507.73;109105;1255;58765;-27
2024/03/11 09:00:39;;;;;;;6.10;1.90;;;;;;;5.89;38.36;99507.60;109129;1256;73631;-27
2024/03/11 09:03:11;;;;;;;5.00;2.10;;;;;;;6.03;38.05;99516.98;109134;1255;76594;-26
2024/03/11 09:05:41;;;;;;;4.10;2.30;;;;;;;6.34;37.83;99511.83;109055;1255;72683;-27
2024/03/11 09:08:10;;;;;;;4.30;2.20;;;;;;;6.45;37.52;99509.32;109098;1255;59091;-26
2024/03/11 09:10:41;;;;;;;7.90;2.90;;;;;;;6.54;36.98;99500.06;109037;1255;61508;-27
2024/03/11 09:20:49;;;;;;;5.00;2.20;;;;;;;6.81;36.60;99506.45;102729;1293;600168;-25
2024/03/11 09:23:17;;;;;;;2.50;1.70;;;;;;;6.81;36.28;99499.16;105092;1267;61981;-24
2024/03/11 09:25:44;;;;;;;3.70;2.10;;;;;;;6.87;35.91;99502.44;104875;1266;61098;-25
2024/03/11 09:28:12;;;;;;;8.10;4.40;;;;;;;6.94;35.93;99502.23;104897;1270;73029;-25
2024/03/11 09:30:41;;;;;;;11.10;3.20;;;;;;;7.02;35.93;99501.88;104798;1267;76388;-25
2024/03/11 09:33:11;;;;;;;3.70;2.30;;;;;;;7.15;35.78;99506.33;104869;1267;73654;-26
2024/03/11 09:35:40;;;;;;;7.90;2.20;;;;;;;7.41;35.73;99508.90;105002;1268;61189;-26
2024/03/11 09:38:09;;;;;;;2.40;1.70;;;;;;;7.65;35.22;99506.41;105195;1263;61161;-26
2024/03/11 09:40:37;;;;;;;6.10;2.20;;;;;;;7.59;35.47;99497.80;105198;1267;73310;-26
2024/03/11 09:43:05;;;;;;;2.80;1.90;;;;;;;7.48;34.98;99500.35;105182;1266;72614;-26
2024/03/11 09:45:34;;;;;;;4.70;2.10;;;;;;;7.60;35.20;99496.71;104854;1263;72803;-26
2024/03/11 09:48:04;;;;;;;4.70;2.10;;;;;;;7.71;35.12;99494.66;105198;1264;61202;-26
2024/03/11 09:50:35;;;;;;;3.30;1.70;;;;;;;7.93;34.87;99491.73;105072;1264;61121;-26
2024/03/11 09:53:06;;;;;;;2.90;1.90;;;;;;;7.98;34.50;99485.70;105188;1268;74349;-26
2024/03/11 09:55:35;;;;;;;3.90;2.70;;;;;;;8.01;34.95;99485.54;105196;1263;75541;-26
2024/03/11 09:58:06;;;;;;;5.10;2.20;;;;;;;7.93;34.89;99489.98;105175;1264;72320;-26
2024/03/11 10:00:35;;;;;;;6.90;2.00;;;;;;;8.13;34.54;99492.38;105173;1269;61780;-26
2024/03/11 10:03:09;;;;;;;4.40;1.80;;;;;;;8.19;34.54;99487.48;104912;1269;61262;-26
2024/03/11 10:05:37;;;;;;;3.40;1.80;;;;;;;8.23;34.43;99491.05;104854;1269;75376;-26
2024/03/11 10:08:05;;;;;;;1.80;1.50;;;;;;;8.22;34.21;99488.83;105042;1263;74807;-26
2024/03/11 10:10:34;;;;;;;5.00;1.70;;;;;;;8.23;34.32;99496.56;105113;1269;74859;-26
2024/03/11 10:13:04;;;;;;;3.50;1.80;;;;;;;8.45;34.18;99489.45;105063;1266;61208;-26
2024/03/11 10:15:33;;;;;;;3.30;2.10;;;;;;;8.66;34.19;99489.67;104977;1264;61112;-26
2024/03/11 10:18:15;;;;;;;3.50;2.30;;;;;;;8.55;34.18;99481.74;104908;1269;74189;-26
2024/03/11 10:20:44;;;;;;;4.90;2.00;;;;;;;8.43;34.39;99479.89;105588;1257;74154;-26
2024/03/11 10:23:11;;;;;;;4.40;2.70;;;;;;;8.26;34.39;99477.17;105458;1261;74648;-26
2024/03/11 10:25:40;;;;;;;2.70;1.80;;;;;;;8.20;34.78;99480.13;105639;1254;61163;-27
2024/03/11 10:28:08;;;;;;;4.60;2.30;;;;;;;8.48;34.62;99472.31;105709;1259;61184;-27
2024/03/11 10:30:36;;;;;;;5.00;1.80;;;;;;;8.73;33.99;99469.33;105717;1259;75032;-27
2024/03/11 10:33:04;;;;;;;6.50;2.80;;;;;;;8.67;33.83;99465.02;105654;1254;73424;-27
2024/03/11 10:35:35;;;;;;;5.30;2.20;;;;;;;8.61;34.09;99465.43;105694;1256;73082;-27
2024/03/11 10:38:12;;;;;;;9.80;4.40;;;;;;;8.59;34.16;99467.43;105638;1258;61201;-27
2024/03/11 10:40:44;;;;;;;4.30;2.10;;;;;;;8.65;33.82;99466.16;105409;1261;61177;-27
2024/03/11 10:43:21;;;;;;;4.70;2.80;;;;;;;8.69;34.23;99462.10;105711;1259;74135;-27
2024/03/11 10:45:48;;;;;;;2.50;1.80;;;;;;;8.74;34.23;99457.99;105660;1254;74185;-27
2024/03/11 10:48:16;;;;;;;5.90;3.30;;;;;;;8.85;33.86;99459.81;105642;1259;72844;-27
2024/03/11 10:50:44;;;;;;;3.70;2.00;;;;;;;8.88;33.94;99457.42;105636;1254;61202;-27
2024/03/11 10:53:21;;;;;;;4.80;2.30;;;;;;;8.89;33.82;99455.03;105695;1254;61231;-27
2024/03/11 10:55:55;;;;;;;4.00;2.30;;;;;;;8.92;33.96;99446.41;105605;1262;74095;-27
2024/03/11 10:58:25;;;;;;;4.50;2.90;;;;;;;8.85;34.15;99445.13;105611;1262;73500;-27
2024/03/11 11:01:00;;;;;;;4.70;2.30;;;;;;;8.83;34.39;99453.42;105582;1257;74727;-27
2024/03/11 11:03:30;;;;;;;4.00;2.70;;;;;;;8.81;34.28;99448.83;105551;1254;61141;-27
2024/03/11 11:06:09;;;;;;;4.60;2.50;;;;;;;8.94;34.29;99457.14;105500;1261;61688;-27
2024/03/11 11:08:37;;;;;;;7.00;2.50;;;;;;;9.11;34.16;99461.39;105688;1259;73250;-27
2024/03/11 11:11:05;;;;;;;4.40;2.30;;;;;;;9.24;34.20;99456.00;105667;1259;76721;-26
2024/03/11 11:13:34;;;;;;;4.40;2.50;;;;;;;9.36;33.72;99456.17;105580;1259;72243;-26
2024/03/11 11:16:03;;;;;;;4.10;2.20;;;;;;;9.36;33.58;99451.13;105554;1254;61209;-26
2024/03/11 11:18:33;;;;;;;3.30;2.10;;;;;;;9.33;33.80;99453.97;105689;1260;61612;-27
2024/03/11 11:21:08;;;;;;;;;;;;;;;9.33;33.70;99447.06;105719;1252;72022;-26
2024/03/11 11:23:37;;;;;;;4.20;2.30;;;;;;;9.06;33.90;99445.47;105661;1258;76043;-26
2024/03/11 11:26:05;;;;;;;2.50;1.80;;;;;;;9.10;34.29;99442.74;105672;1258;72922;-27
2024/03/11 11:28:37;;;;;;;3.20;1.80;;;;;;;9.36;34.14;99444.04;105708;1259;61195;-27
2024/03/11 11:31:11;;;;;;;;;;;;;;;9.25;33.91;99438.40;105688;1259;61173;-26
2024/03/11 11:33:59;;;;;;;10.90;2.10;;;;;;;8.88;34.22;99432.13;105704;1259;74167;-26
2024/03/11 11:36:30;;;;;;;5.00;2.70;;;;;;;8.59;35.08;99429.59;105700;1254;74614;-26
2024/03/11 11:39:13;;;;;;;5.30;1.70;;;;;;;8.26;35.24;99431.16;105657;1259;73667;-26
2024/03/11 11:41:49;;;;;;;5.60;2.70;;;;;;;8.28;35.48;99434.33;105454;1254;61161;-26
2024/03/11 11:44:25;;;;;;;6.80;3.30;;;;;;;8.31;35.47;99435.20;105405;1261;61421;-27
2024/03/11 11:47:15;;;;;;;5.30;2.50;;;;;;;8.31;35.50;99433.80;105691;1254;71771;-26